Time;durP1;ratioP1;P1;durP2;ratioP2;P2;SDS_P1;SDS_P2;PMS_P1;PMS_P2;Temp;Humidity;BMP_temperature;BMP_pressure;BME280_temperature;BME280_humidity;BME280_pressure;Samples;Min_cycle;Max_cycle;Signal;HPM_P1;HPM_P2
2022/11/05 00:09:45;;;;;;;15.52;3.55;;;6.90;99.90;;;;;;5076173;28;20059;-59
2022/11/05 00:17:42;;;;;;;11.57;4.88;;;6.80;99.90;;;;;;5069161;28;20044;-59
2022/11/05 00:20:09;;;;;;;12.52;4.90;;;6.80;99.90;;;;;;5073338;28;20130;-61
2022/11/05 00:25:20;;;;;;;15.93;4.97;;;6.70;99.90;;;;;;5073006;28;20560;-60
2022/11/05 00:27:52;;;;;;;15.68;4.50;;;6.70;99.90;;;;;;5074092;28;20102;-59
2022/11/05 00:30:21;;;;;;;18.00;4.85;;;6.80;99.90;;;;;;5073519;28;20101;-59
2022/11/05 00:32:48;;;;;;;20.58;5.57;;;6.70;99.90;;;;;;5073576;28;20428;-60
2022/11/05 00:35:16;;;;;;;9.80;5.15;;;6.80;99.90;;;;;;5072109;28;20044;-59
2022/11/05 00:37:42;;;;;;;16.83;5.07;;;6.70;99.90;;;;;;5075866;28;20048;-60
2022/11/05 00:40:09;;;;;;;15.63;4.95;;;6.70;99.90;;;;;;5076037;28;20061;-60
2022/11/05 00:45:19;;;;;;;10.52;4.15;;;6.70;99.90;;;;;;5078013;28;20051;-61
2022/11/05 00:50:30;;;;;;;17.17;4.68;;;6.60;99.90;;;;;;5077348;28;20060;-59
2022/11/05 00:52:59;;;;;;;6.53;3.30;;;6.50;99.90;;;;;;5068938;28;20060;-59
2022/11/05 00:55:33;;;;;;;8.43;3.90;;;6.50;99.90;;;;;;5072778;28;20083;-59
2022/11/05 00:58:01;;;;;;;8.02;3.58;;;6.50;99.90;;;;;;5070849;28;20479;-58
2022/11/05 01:00:29;;;;;;;9.73;3.78;;;6.50;99.90;;;;;;5056762;28;20048;-59
2022/11/05 01:03:00;;;;;;;14.15;3.65;;;6.40;99.90;;;;;;5073519;28;20041;-60
2022/11/05 01:05:26;;;;;;;8.70;2.88;;;6.40;99.90;;;;;;5071298;28;20093;-60
2022/11/05 01:07:52;;;;;;;13.27;3.80;;;6.40;99.90;;;;;;5070517;28;20052;-59
2022/11/05 01:10:19;;;;;;;8.23;3.53;;;6.40;99.90;;;;;;5075580;28;20052;-59
2022/11/05 01:12:44;;;;;;;9.93;3.38;;;6.40;99.90;;;;;;5075825;28;20162;-59
2022/11/05 01:15:10;;;;;;;9.38;3.40;;;6.40;99.90;;;;;;5071865;28;20123;-59
2022/11/05 01:17:36;;;;;;;10.00;3.15;;;6.40;99.90;;;;;;5072064;28;20048;-59
2022/11/05 01:20:02;;;;;;;10.88;3.30;;;6.40;99.90;;;;;;5078126;28;20094;-59
2022/11/05 01:22:28;;;;;;;13.15;3.78;;;6.40;99.90;;;;;;5072862;28;20087;-59
2022/11/05 01:24:54;;;;;;;8.90;2.90;;;6.40;99.90;;;;;;5071316;28;20166;-59
2022/11/05 01:27:20;;;;;;;9.82;3.08;;;6.30;99.90;;;;;;5072217;28;20060;-59
2022/11/05 01:29:45;;;;;;;6.28;2.90;;;6.30;99.90;;;;;;5053257;28;20055;-59
2022/11/05 01:32:11;;;;;;;15.23;3.15;;;6.30;99.90;;;;;;5073530;28;20047;-59
2022/11/05 01:34:37;;;;;;;12.52;3.38;;;6.30;99.90;;;;;;5071810;28;20052;-59
2022/11/05 01:37:03;;;;;;;8.18;3.40;;;6.30;99.90;;;;;;5074595;28;20358;-59
2022/11/05 01:39:29;;;;;;;8.82;3.20;;;6.30;99.90;;;;;;5073232;28;20044;-59
2022/11/05 01:41:54;;;;;;;11.23;3.30;;;6.20;99.90;;;;;;5061011;28;20057;-60
2022/11/05 01:44:46;;;;;;;10.07;3.03;;;6.30;99.90;;;;;;5067389;28;20529;-60
2022/11/05 01:47:43;;;;;;;11.68;3.35;;;6.30;99.90;;;;;;5072586;28;20502;-59
2022/11/05 01:50:39;;;;;;;10.50;2.90;;;6.40;99.90;;;;;;5067995;28;20551;-59
2022/11/05 01:53:29;;;;;;;10.43;2.75;;;6.40;99.90;;;;;;5075285;28;20059;-60
2022/11/05 01:56:03;;;;;;;7.78;3.40;;;6.30;99.90;;;;;;5088330;28;20085;-59
2022/11/05 01:58:36;;;;;;;9.43;3.30;;;6.40;99.90;;;;;;5087484;28;20048;-62
2022/11/05 02:01:02;;;;;;;8.20;3.40;;;6.30;99.90;;;;;;5088638;28;20486;-61
2022/11/05 02:03:29;;;;;;;12.75;3.65;;;6.30;99.90;;;;;;5072227;28;20065;-60
2022/11/05 02:05:57;;;;;;;15.85;4.10;;;6.40;99.90;;;;;;5093842;28;20055;-60
2022/11/05 02:08:59;;;;;;;10.40;4.13;;;6.40;99.90;;;;;;5071131;28;20047;-61
2022/11/05 02:11:25;;;;;;;11.23;4.80;;;6.40;99.90;;;;;;5078206;28;20044;-60
2022/11/05 02:13:51;;;;;;;10.40;4.38;;;6.40;99.90;;;;;;5070671;28;20048;-60
2022/11/05 02:16:38;;;;;;;8.18;3.60;;;6.40;99.90;;;;;;5074292;28;20485;-59
2022/11/05 02:19:37;;;;;;;11.98;3.67;;;6.40;99.90;;;;;;5076465;28;20040;-59
2022/11/05 02:22:03;;;;;;;8.52;3.38;;;6.30;99.90;;;;;;5096853;28;22005;-62
2022/11/05 02:24:44;;;;;;;9.05;3.30;;;6.30;99.90;;;;;;5079008;28;20059;-59
2022/11/05 02:27:28;;;;;;;10.70;2.95;;;6.20;99.90;;;;;;5075308;28;20051;-59
2022/11/05 02:30:11;;;;;;;10.50;2.63;;;6.20;99.90;;;;;;5094328;28;20109;-61
2022/11/05 02:33:07;;;;;;;9.32;3.20;;;6.20;99.90;;;;;;5096943;28;20036;-61
2022/11/05 02:35:33;;;;;;;6.63;2.70;;;6.20;99.90;;;;;;5091676;27;20090;-60
2022/11/05 02:38:07;;;;;;;12.00;2.85;;;6.20;99.90;;;;;;5092731;27;20075;-60
2022/11/05 02:41:02;;;;;;;8.20;2.80;;;6.20;99.90;;;;;;5094817;27;20047;-59
2022/11/05 02:43:49;;;;;;;7.75;3.05;;;6.10;99.90;;;;;;5081529;28;20512;-61
2022/11/05 02:46:39;;;;;;;7.00;2.90;;;6.10;99.90;;;;;;5068221;28;20130;-59
2022/11/05 02:49:28;;;;;;;8.25;2.88;;;6.10;99.90;;;;;;5077632;28;20047;-59
2022/11/05 02:52:02;;;;;;;7.93;2.60;;;6.20;99.90;;;;;;5093339;28;21195;-59
2022/11/05 02:55:07;;;;;;;8.55;2.70;;;6.20;99.90;;;;;;5075858;28;20048;-59
2022/11/05 02:57:36;;;;;;;15.45;2.88;;;6.20;99.90;;;;;;5086150;28;20091;-59
2022/11/05 03:00:27;;;;;;;9.48;2.85;;;6.20;99.90;;;;;;5093438;27;20044;-59
2022/11/05 03:02:53;;;;;;;8.77;2.63;;;6.20;99.90;;;;;;5094269;28;20192;-60
2022/11/05 03:05:24;;;;;;;9.30;2.70;;;6.20;99.90;;;;;;5090121;28;20052;-59
2022/11/05 03:08:07;;;;;;;6.82;2.90;;;6.20;99.90;;;;;;5080113;28;20498;-59
2022/11/05 03:10:49;;;;;;;7.45;2.65;;;6.20;99.90;;;;;;5095547;28;20077;-59
2022/11/05 03:13:46;;;;;;;5.75;2.25;;;6.20;99.90;;;;;;5079111;28;20125;-58
2022/11/05 03:16:20;;;;;;;5.68;2.30;;;6.20;99.90;;;;;;5075043;28;20082;-59
2022/11/05 03:18:56;;;;;;;5.57;2.13;;;6.20;99.90;;;;;;5074448;28;20036;-60
2022/11/05 03:22:00;;;;;;;7.03;2.47;;;6.10;99.90;;;;;;5081776;28;20044;-58
2022/11/05 03:24:31;;;;;;;7.57;2.22;;;6.10;99.90;;;;;;5096094;28;20053;-59
2022/11/05 03:27:14;;;;;;;6.13;2.42;;;6.10;99.90;;;;;;5092147;28;20057;-59
2022/11/05 03:29:48;;;;;;;6.47;2.33;;;6.10;99.90;;;;;;5094859;28;20044;-60
2022/11/05 03:32:16;;;;;;;7.15;2.78;;;6.10;99.90;;;;;;5094713;28;20402;-60
2022/11/05 03:34:46;;;;;;;7.72;2.70;;;6.00;99.90;;;;;;5068250;28;20048;-61
2022/11/05 03:37:13;;;;;;;13.20;3.10;;;6.10;99.90;;;;;;5078968;28;20495;-59
2022/11/05 03:39:46;;;;;;;7.38;2.75;;;6.10;99.90;;;;;;5076987;28;20485;-60
2022/11/05 03:42:14;;;;;;;;;;;6.20;99.90;;;;;;5077073;28;20052;-61
2022/11/05 03:44:46;;;;;;;9.25;3.33;;;6.20;99.90;;;;;;5093679;28;20002;-59
2022/11/05 03:47:17;;;;;;;6.55;2.72;;;6.30;99.90;;;;;;5094150;28;20378;-61
2022/11/05 03:49:58;;;;;;;6.78;2.85;;;6.40;99.90;;;;;;5078764;28;20082;-59
2022/11/05 03:52:28;;;;;;;12.00;3.40;;;6.50;99.90;;;;;;5093813;28;20058;-59
2022/11/05 03:54:54;;;;;;;9.93;4.10;;;6.50;99.90;;;;;;5095008;28;20051;-60
2022/11/05 03:57:28;;;;;;;8.85;3.47;;;6.60;99.90;;;;;;5093508;28;20072;-59
2022/11/05 03:59:54;;;;;;;8.95;3.47;;;6.60;99.90;;;;;;5093080;28;20279;-59
2022/11/05 04:02:24;;;;;;;11.52;3.00;;;6.70;99.90;;;;;;5090602;27;20055;-60
2022/11/05 04:04:51;;;;;;;10.10;2.85;;;6.70;99.90;;;;;;5074343;28;20052;-59
2022/11/05 04:15:30;;;;;;;6.78;2.70;;;6.70;99.90;;;;;;5070988;28;20062;-59
2022/11/05 04:17:57;;;;;;;9.80;2.70;;;6.70;99.90;;;;;;5073577;28;20044;-61
2022/11/05 04:25:54;;;;;;;8.10;2.90;;;6.80;99.90;;;;;;5081476;28;20071;-58
2022/11/05 04:30:17;;;;;;;6.65;2.72;;;6.90;99.90;;;;;;5074517;28;20071;-60
2022/11/05 04:31:05;;;;;;;9.23;3.00;;;6.90;99.90;;;;;;5064428;28;20044;-59
2022/11/05 04:33:31;;;;;;;8.40;3.25;;;6.90;99.90;;;;;;5083575;28;20105;-59
2022/11/05 04:35:59;;;;;;;11.05;3.92;;;6.90;99.90;;;;;;5077316;28;20051;-59
2022/11/05 04:38:24;;;;;;;9.32;3.25;;;7.00;99.90;;;;;;5075732;28;20169;-60
2022/11/05 04:40:50;;;;;;;26.77;4.28;;;7.00;99.90;;;;;;5094262;28;20565;-60
2022/11/05 04:43:17;;;;;;;11.85;3.47;;;7.00;99.90;;;;;;5043586;28;20048;-59
2022/11/05 04:45:44;;;;;;;6.30;3.33;;;6.90;99.90;;;;;;5077242;28;20059;-58
2022/11/05 04:48:10;;;;;;;7.78;3.20;;;6.90;99.90;;;;;;5091135;28;20771;-60
2022/11/05 04:50:36;;;;;;;13.23;3.20;;;6.90;99.90;;;;;;5072697;28;24268;-58
2022/11/05 04:53:02;;;;;;;10.52;3.65;;;6.90;99.90;;;;;;5089942;27;20152;-60
2022/11/05 04:55:28;;;;;;;6.43;3.67;;;6.90;99.90;;;;;;5092674;28;20135;-59
2022/11/05 04:57:54;;;;;;;8.50;3.13;;;6.80;99.90;;;;;;5073008;28;20124;-61
2022/11/05 05:00:22;;;;;;;6.82;3.20;;;6.90;99.90;;;;;;5077155;28;20490;-59
2022/11/05 05:02:48;;;;;;;7.75;3.45;;;6.90;99.90;;;;;;5070994;28;20043;-59
2022/11/05 05:05:14;;;;;;;5.60;3.42;;;6.90;99.90;;;;;;5074324;28;20511;-59
2022/11/05 05:07:40;;;;;;;10.18;3.97;;;6.80;99.90;;;;;;5091412;28;20101;-59
2022/11/05 05:10:08;;;;;;;5.13;2.90;;;6.80;99.90;;;;;;5090611;28;20046;-60
2022/11/05 05:12:34;;;;;;;13.68;3.65;;;6.80;99.90;;;;;;5078944;28;20070;-61
2022/11/05 05:15:00;;;;;;;6.85;3.42;;;6.70;99.90;;;;;;5075212;28;20044;-59
2022/11/05 05:17:26;;;;;;;10.88;3.22;;;6.70;99.90;;;;;;5065683;28;20044;-60
2022/11/05 05:22:36;;;;;;;11.90;4.53;;;6.70;99.90;;;;;;5092102;28;20035;-59
2022/11/05 05:25:02;;;;;;;8.60;4.18;;;6.60;99.90;;;;;;5073728;28;20056;-60
2022/11/05 05:27:29;;;;;;;9.00;4.78;;;6.60;99.90;;;;;;5091619;28;20521;-60
2022/11/05 05:29:56;;;;;;;12.98;4.88;;;6.60;99.90;;;;;;5095326;28;20048;-61
2022/11/05 05:32:22;;;;;;;11.30;4.85;;;6.50;99.90;;;;;;5094330;28;20040;-59
2022/11/05 05:34:48;;;;;;;15.70;5.93;;;6.50;99.90;;;;;;5081787;28;20066;-60
2022/11/05 05:37:15;;;;;;;11.52;6.03;;;6.50;99.90;;;;;;5058050;28;20138;-60
2022/11/05 05:39:43;;;;;;;10.73;6.25;;;6.50;99.90;;;;;;5091527;28;20062;-59
2022/11/05 05:42:09;;;;;;;13.30;6.15;;;6.50;99.90;;;;;;5092533;28;20055;-59
2022/11/05 05:44:35;;;;;;;12.50;5.72;;;6.50;99.90;;;;;;5075069;28;20106;-60
2022/11/05 05:47:01;;;;;;;10.93;5.95;;;6.50;99.90;;;;;;5074804;28;20043;-59
2022/11/05 05:49:27;;;;;;;11.48;5.72;;;6.50;99.90;;;;;;5091652;28;20074;-59
2022/11/05 05:51:53;;;;;;;12.30;5.68;;;6.50;99.90;;;;;;5075572;28;20405;-59
2022/11/05 05:54:18;;;;;;;11.93;6.35;;;6.50;99.90;;;;;;5094245;28;20532;-59
2022/11/05 05:56:44;;;;;;;17.40;10.15;;;6.50;99.90;;;;;;5090832;28;20505;-59
2022/11/05 05:59:11;;;;;;;12.45;7.50;;;6.50;99.90;;;;;;5089862;28;20101;-59
2022/11/05 06:01:37;;;;;;;13.30;6.50;;;6.40;99.90;;;;;;5092544;28;20051;-61
2022/11/05 06:04:03;;;;;;;15.80;8.15;;;6.50;99.90;;;;;;5072333;28;20555;-60
2022/11/05 06:06:29;;;;;;;20.17;7.03;;;6.50;99.90;;;;;;5089016;28;20394;-62
2022/11/05 06:08:55;;;;;;;13.88;8.00;;;6.50;99.90;;;;;;5067522;28;20055;-59
2022/11/05 06:11:24;;;;;;;14.23;7.38;;;6.50;99.90;;;;;;5073477;28;20063;-61
2022/11/05 06:13:50;;;;;;;13.02;8.32;;;6.60;99.90;;;;;;5075387;28;20059;-59
2022/11/05 06:16:18;;;;;;;15.23;8.15;;;6.50;99.90;;;;;;5073138;28;20047;-59
2022/11/05 06:18:44;;;;;;;15.20;9.40;;;6.60;99.90;;;;;;5092079;28;20047;-59
2022/11/05 06:21:13;;;;;;;16.02;9.40;;;6.50;99.90;;;;;;5091971;28;20052;-59
2022/11/05 06:23:41;;;;;;;11.63;7.38;;;6.60;99.90;;;;;;5090308;28;20044;-60
2022/11/05 06:26:13;;;;;;;13.18;7.43;;;6.50;99.90;;;;;;5069598;28;20044;-59
2022/11/05 06:28:40;;;;;;;13.65;6.32;;;6.50;99.90;;;;;;5092206;28;20106;-61
2022/11/05 06:31:07;;;;;;;11.48;6.28;;;6.50;99.90;;;;;;5086668;28;20135;-59
2022/11/05 06:33:33;;;;;;;11.38;5.40;;;6.50;99.90;;;;;;5088704;28;20580;-59
2022/11/05 06:36:02;;;;;;;13.13;8.32;;;6.50;99.90;;;;;;5070767;28;20123;-59
2022/11/05 06:38:31;;;;;;;13.13;6.88;;;6.40;99.90;;;;;;5088911;28;20109;-58
2022/11/05 06:40:58;;;;;;;11.48;6.43;;;6.40;99.90;;;;;;5093925;28;20052;-62
2022/11/05 06:43:24;;;;;;;11.80;6.45;;;6.40;99.90;;;;;;5074340;28;20049;-59
2022/11/05 06:45:50;;;;;;;13.60;6.75;;;6.30;99.90;;;;;;5074848;28;20044;-59
2022/11/05 06:48:16;;;;;;;12.52;7.47;;;6.30;99.90;;;;;;5056704;28;20062;-60
2022/11/05 06:50:45;;;;;;;13.75;6.47;;;6.30;99.90;;;;;;5072790;28;20056;-61
2022/11/05 06:53:12;;;;;;;15.43;7.57;;;6.20;99.90;;;;;;5090970;28;20494;-61
2022/11/05 06:55:38;;;;;;;12.05;7.00;;;6.20;99.90;;;;;;5073221;28;20516;-60
2022/11/05 06:58:04;;;;;;;12.40;6.40;;;6.20;99.90;;;;;;5093532;28;20048;-60
2022/11/05 07:00:29;;;;;;;13.07;6.32;;;6.20;99.90;;;;;;5095900;28;20482;-59
2022/11/05 07:03:03;;;;;;;12.45;6.80;;;6.20;99.90;;;;;;5080445;28;20148;-61
2022/11/05 07:05:29;;;;;;;11.35;6.30;;;6.20;99.90;;;;;;5080378;28;20083;-59
2022/11/05 07:07:55;;;;;;;9.95;6.70;;;6.20;99.90;;;;;;5082183;28;20043;-61
2022/11/05 07:10:21;;;;;;;12.52;7.20;;;6.20;99.90;;;;;;5094991;28;20082;-59
2022/11/05 07:12:47;;;;;;;16.60;7.78;;;6.20;99.90;;;;;;5097839;28;20031;-61
2022/11/05 07:15:12;;;;;;;14.32;7.75;;;6.10;99.90;;;;;;5100246;28;20097;-59
2022/11/05 07:17:39;;;;;;;17.63;7.18;;;6.20;99.90;;;;;;5096652;28;20028;-59
2022/11/05 07:20:07;;;;;;;15.32;7.57;;;6.20;99.90;;;;;;5079547;28;20097;-61
2022/11/05 07:22:33;;;;;;;12.95;7.15;;;6.20;99.90;;;;;;5085475;28;20048;-59
2022/11/05 07:24:59;;;;;;;15.48;7.72;;;6.20;99.90;;;;;;5073378;28;20478;-59
2022/11/05 07:27:25;;;;;;;11.52;7.15;;;6.20;99.90;;;;;;5044734;28;20124;-59
2022/11/05 07:29:51;;;;;;;10.38;6.93;;;6.20;99.90;;;;;;5062488;28;20421;-59
2022/11/05 07:32:17;;;;;;;16.45;7.50;;;6.20;99.90;;;;;;5095259;28;20052;-60
2022/11/05 07:34:43;;;;;;;13.52;7.38;;;6.20;99.90;;;;;;5082733;28;20097;-59
2022/11/05 07:37:08;;;;;;;12.93;6.97;;;6.20;99.90;;;;;;5077698;28;20036;-60
2022/11/05 07:39:34;;;;;;;12.82;7.10;;;6.30;99.90;;;;;;5098487;28;20124;-58
2022/11/05 07:42:00;;;;;;;13.73;7.43;;;6.30;99.90;;;;;;5096694;28;20468;-60
2022/11/05 07:44:26;;;;;;;9.70;6.20;;;6.30;99.90;;;;;;5096961;28;20490;-59
2022/11/05 07:46:51;;;;;;;13.27;6.35;;;6.30;99.90;;;;;;5096646;28;20050;-59
2022/11/05 07:49:18;;;;;;;14.27;6.97;;;6.30;99.90;;;;;;5094570;28;20437;-60
2022/11/05 07:51:43;;;;;;;11.80;6.78;;;6.40;99.90;;;;;;5080321;28;20082;-59
2022/11/05 07:54:10;;;;;;;13.98;6.50;;;6.40;99.90;;;;;;5078685;28;20076;-60
2022/11/05 07:56:36;;;;;;;9.93;6.75;;;6.40;99.90;;;;;;5081176;28;20042;-59
2022/11/05 07:59:02;;;;;;;10.38;6.65;;;6.50;99.90;;;;;;5064416;28;20047;-59
2022/11/05 08:01:28;;;;;;;17.88;7.32;;;6.50;99.90;;;;;;5081073;28;20048;-59
2022/11/05 08:03:53;;;;;;;11.77;7.35;;;6.50;99.90;;;;;;5076413;28;20062;-58
2022/11/05 08:06:19;;;;;;;13.20;8.05;;;6.60;99.90;;;;;;5098035;28;20067;-59
2022/11/05 08:08:45;;;;;;;16.10;8.50;;;6.60;99.90;;;;;;5088718;28;20109;-58
2022/11/05 08:11:11;;;;;;;17.02;10.27;;;6.70;99.90;;;;;;5096484;27;20079;-58
2022/11/05 08:13:37;;;;;;;16.63;9.85;;;6.70;99.90;;;;;;5095420;28;20490;-58
2022/11/05 08:16:04;;;;;;;14.98;8.75;;;6.80;99.90;;;;;;5098310;28;20058;-58
2022/11/05 08:18:31;;;;;;;11.18;6.90;;;6.90;99.90;;;;;;5088410;28;20073;-58
2022/11/05 08:21:02;;;;;;;12.77;6.45;;;7.00;99.90;;;;;;5079859;28;20055;-58
2022/11/05 08:23:30;;;;;;;12.55;6.78;;;7.00;99.90;;;;;;5077041;28;20104;-58
2022/11/05 08:25:56;;;;;;;10.10;6.75;;;7.10;99.90;;;;;;5096297;28;20047;-59
2022/11/05 08:28:23;;;;;;;9.15;6.45;;;7.20;99.90;;;;;;5097454;28;20558;-60
2022/11/05 08:30:51;;;;;;;13.13;7.10;;;7.30;99.90;;;;;;5079360;28;20464;-60
2022/11/05 08:33:17;;;;;;;10.98;6.60;;;7.40;99.90;;;;;;5096601;28;20113;-59
2022/11/05 08:35:43;;;;;;;8.63;6.32;;;7.60;99.90;;;;;;5093400;28;20039;-58
2022/11/05 08:38:12;;;;;;;9.40;6.72;;;7.70;99.90;;;;;;5095463;28;20994;-58
2022/11/05 08:40:38;;;;;;;18.48;7.30;;;7.90;99.90;;;;;;5094707;28;20071;-59
2022/11/05 08:43:06;;;;;;;13.07;6.60;;;8.00;99.90;;;;;;5081409;28;20410;-58
2022/11/05 08:45:32;;;;;;;10.55;6.03;;;8.20;99.90;;;;;;5098938;28;20048;-60
2022/11/05 08:48:04;;;;;;;13.23;5.97;;;8.40;99.90;;;;;;5098901;28;20193;-58
2022/11/05 08:50:31;;;;;;;11.63;6.38;;;8.50;99.90;;;;;;5093715;27;20162;-59
2022/11/05 08:52:57;;;;;;;8.38;5.13;;;8.70;99.90;;;;;;5096457;28;20035;-58
2022/11/05 08:55:23;;;;;;;12.07;5.28;;;8.80;99.90;;;;;;5096512;28;20398;-59
2022/11/05 08:57:55;;;;;;;10.68;5.03;;;8.90;99.90;;;;;;5076301;28;20047;-58
2022/11/05 09:00:21;;;;;;;10.07;5.03;;;9.00;99.90;;;;;;5094993;28;20048;-59
2022/11/05 09:02:46;;;;;;;11.50;5.30;;;9.10;99.90;;;;;;5096591;28;20123;-58
2022/11/05 09:05:12;;;;;;;11.82;5.22;;;9.30;99.90;;;;;;5085419;28;20040;-58
2022/11/05 09:07:38;;;;;;;12.10;4.40;;;9.50;99.90;;;;;;5080033;28;20473;-58
2022/11/05 09:10:04;;;;;;;9.15;4.57;;;9.60;99.90;;;;;;5086619;28;20478;-58
2022/11/05 09:12:30;;;;;;;9.13;4.32;;;9.80;99.90;;;;;;5078099;28;20051;-59
2022/11/05 09:14:56;;;;;;;10.55;4.35;;;9.90;99.90;;;;;;5096417;27;20050;-58
2022/11/05 09:17:22;;;;;;;8.63;4.47;;;10.00;99.90;;;;;;5064806;28;20047;-58
2022/11/05 09:19:48;;;;;;;8.07;4.00;;;10.10;99.90;;;;;;5097159;28;20040;-59
2022/11/05 09:22:14;;;;;;;9.52;4.15;;;10.10;99.90;;;;;;5079423;28;20429;-58
2022/11/05 09:24:41;;;;;;;8.55;4.07;;;10.10;99.90;;;;;;5097348;28;20048;-59
2022/11/05 09:27:14;;;;;;;8.73;4.15;;;10.20;99.90;;;;;;5096726;28;20051;-59
2022/11/05 09:29:43;;;;;;;12.65;3.80;;;10.20;99.90;;;;;;5094971;28;20389;-59
2022/11/05 09:32:09;;;;;;;6.57;3.58;;;10.20;99.90;;;;;;5097784;28;20086;-58
2022/11/05 09:34:35;;;;;;;8.32;3.95;;;10.20;99.90;;;;;;5078553;28;20124;-58
2022/11/05 09:37:01;;;;;;;8.88;3.78;;;10.20;99.90;;;;;;5098347;28;20681;-59
2022/11/05 09:39:27;;;;;;;6.28;3.80;;;10.20;99.90;;;;;;5096791;28;20522;-58
2022/11/05 09:41:58;;;;;;;7.10;3.15;;;10.20;99.90;;;;;;5096337;28;20040;-58
2022/11/05 09:44:35;;;;;;;12.18;3.88;;;10.20;99.90;;;;;;5096461;28;20043;-59
2022/11/05 09:47:06;;;;;;;7.68;3.28;;;10.20;99.90;;;;;;5094644;28;20040;-59
2022/11/05 09:49:38;;;;;;;7.60;3.60;;;10.20;99.90;;;;;;5094590;28;20126;-59
2022/11/05 09:52:10;;;;;;;8.00;3.70;;;10.20;99.90;;;;;;5093828;28;20047;-60
2022/11/05 09:54:36;;;;;;;7.63;3.15;;;10.20;99.90;;;;;;5094066;28;20138;-59
2022/11/05 09:57:06;;;;;;;6.95;3.45;;;10.20;99.90;;;;;;5095750;28;20146;-58
2022/11/05 09:59:43;;;;;;;8.25;3.88;;;10.20;99.90;;;;;;5066519;28;20048;-58
2022/11/05 10:02:21;;;;;;;7.00;3.65;;;10.20;99.90;;;;;;5091342;28;20047;-58
2022/11/05 10:04:49;;;;;;;7.72;3.70;;;10.30;99.90;;;;;;5080047;28;20043;-58
2022/11/05 10:07:20;;;;;;;9.25;3.30;;;10.40;99.90;;;;;;5094266;28;20051;-58
2022/11/05 10:09:50;;;;;;;6.43;2.90;;;10.60;99.90;;;;;;5074458;28;20620;-59
2022/11/05 10:12:30;;;;;;;7.30;3.10;;;10.70;99.90;;;;;;5095953;28;20071;-58
2022/11/05 10:15:11;;;;;;;8.82;3.42;;;10.80;99.90;;;;;;5096672;28;20466;-59
2022/11/05 10:17:41;;;;;;;7.50;3.05;;;10.90;99.90;;;;;;5081561;28;20047;-58
2022/11/05 10:20:33;;;;;;;9.77;3.00;;;11.00;99.90;;;;;;5094386;28;20039;-58
2022/11/05 10:23:13;;;;;;;13.00;3.03;;;11.20;99.90;;;;;;5095390;28;20051;-59
2022/11/05 10:25:44;;;;;;;7.03;2.95;;;11.40;99.90;;;;;;5093892;28;20058;-59
2022/11/05 10:28:20;;;;;;;5.28;2.72;;;11.50;99.90;;;;;;5077220;28;20059;-59
2022/11/05 10:30:50;;;;;;;7.50;2.30;;;11.50;99.90;;;;;;5084076;28;21142;-59
2022/11/05 10:33:27;;;;;;;5.18;2.78;;;11.40;99.90;;;;;;5087366;28;20040;-59
2022/11/05 10:36:04;;;;;;;7.28;2.65;;;11.50;99.90;;;;;;5094642;28;20079;-58
2022/11/05 10:38:30;;;;;;;6.15;2.55;;;11.60;99.90;;;;;;5091507;28;20044;-61
2022/11/05 10:40:55;;;;;;;7.07;2.60;;;11.70;99.90;;;;;;5093991;28;20043;-58
2022/11/05 10:43:36;;;;;;;6.85;3.13;;;11.90;99.90;;;;;;5091359;28;20047;-60
2022/11/05 10:46:26;;;;;;;6.80;2.80;;;12.10;99.90;;;;;;5095821;28;20085;-59
2022/11/05 10:49:10;;;;;;;9.30;2.60;;;12.30;99.90;;;;;;5098206;28;20043;-59
2022/11/05 10:51:36;;;;;;;4.53;2.88;;;12.50;99.90;;;;;;5074767;28;20051;-59
2022/11/05 10:54:20;;;;;;;7.22;2.60;;;12.70;99.90;;;;;;5093083;28;20073;-59
2022/11/05 10:56:46;;;;;;;10.43;2.90;;;12.90;99.90;;;;;;5081182;28;20392;-60
2022/11/05 10:59:38;;;;;;;7.95;2.35;;;13.20;99.90;;;;;;5090188;27;20048;-59
2022/11/05 11:02:25;;;;;;;7.50;2.30;;;13.30;99.90;;;;;;5085799;27;20055;-61
2022/11/05 11:04:52;;;;;;;7.00;2.20;;;13.40;99.90;;;;;;5095652;28;20557;-58
2022/11/05 11:07:24;;;;;;;6.68;2.47;;;13.50;99.90;;;;;;5093045;28;20446;-60
2022/11/05 11:09:50;;;;;;;6.40;2.22;;;13.60;99.90;;;;;;5092947;28;20051;-59
2022/11/05 11:12:23;;;;;;;7.57;2.65;;;13.80;99.90;;;;;;5072064;28;20054;-60
2022/11/05 11:15:24;;;;;;;5.50;2.70;;;13.90;99.90;;;;;;5094943;28;20044;-61
2022/11/05 11:17:50;;;;;;;7.07;2.38;;;14.00;99.90;;;;;;5073932;28;20036;-60
2022/11/05 11:20:31;;;;;;;6.15;2.58;;;14.00;99.90;;;;;;5076323;28;20442;-60
2022/11/05 11:23:08;;;;;;;8.15;2.30;;;14.00;99.90;;;;;;5091764;27;20482;-60
2022/11/05 11:25:37;;;;;;;8.82;2.20;;;14.10;99.90;;;;;;5097176;28;20318;-59
2022/11/05 11:28:04;;;;;;;6.45;2.10;;;14.30;99.90;;;;;;5097776;28;20486;-58
2022/11/05 11:30:31;;;;;;;9.15;2.63;;;14.40;99.90;;;;;;5093687;28;20040;-60
2022/11/05 11:33:05;;;;;;;7.50;2.35;;;14.50;99.90;;;;;;5092624;28;20085;-61
2022/11/05 11:35:34;;;;;;;6.40;2.28;;;14.60;99.90;;;;;;5094911;28;20040;-59
2022/11/05 11:38:00;;;;;;;8.30;2.20;;;14.70;99.90;;;;;;5096595;28;20036;-60
2022/11/05 11:40:33;;;;;;;4.53;1.80;;;14.80;99.90;;;;;;5092476;28;20036;-59
2022/11/05 11:43:02;;;;;;;6.38;2.00;;;14.80;99.90;;;;;;5088171;28;20140;-60
2022/11/05 11:45:48;;;;;;;3.40;1.73;;;14.80;99.90;;;;;;5092748;28;20145;-58
2022/11/05 11:48:27;;;;;;;6.32;1.85;;;14.80;99.90;;;;;;5097494;28;22973;-60
2022/11/05 11:50:53;;;;;;;5.70;1.80;;;14.80;99.90;;;;;;5084690;28;20127;-61
2022/11/05 11:53:19;;;;;;;6.72;1.90;;;14.80;99.90;;;;;;5073066;28;20050;-61
2022/11/05 11:56:08;;;;;;;6.53;1.95;;;14.70;99.90;;;;;;5069772;28;20386;-60
2022/11/05 11:58:37;;;;;;;6.65;1.98;;;14.50;99.90;;;;;;5068540;28;20077;-60
2022/11/05 12:01:40;;;;;;;6.95;2.17;;;14.40;99.90;;;;;;5067196;28;20044;-61
2022/11/05 12:04:26;;;;;;;4.78;1.88;;;14.10;99.90;;;;;;5057575;28;20063;-59
2022/11/05 12:07:17;;;;;;;4.97;1.92;;;14.00;99.90;;;;;;5074347;28;20151;-60
2022/11/05 12:10:05;;;;;;;3.38;1.77;;;13.80;99.90;;;;;;5097513;28;20111;-59
2022/11/05 12:12:45;;;;;;;7.07;1.75;;;13.70;99.90;;;;;;5098520;28;20031;-58
2022/11/05 12:15:10;;;;;;;5.78;1.50;;;13.60;99.90;;;;;;5100851;28;20115;-59
2022/11/05 12:18:00;;;;;;;6.68;2.15;;;13.40;99.90;;;;;;5099335;28;20168;-60
2022/11/05 12:20:37;;;;;;;4.07;1.60;;;13.30;99.90;;;;;;5077883;28;21111;-59
2022/11/05 12:23:17;;;;;;;6.82;1.83;;;13.10;99.90;;;;;;5094096;28;20120;-60
2022/11/05 12:25:54;;;;;;;4.93;1.50;;;13.00;99.90;;;;;;5076956;28;20048;-60
2022/11/05 12:28:38;;;;;;;4.88;1.70;;;12.90;99.90;;;;;;5099469;28;20048;-59
2022/11/05 12:31:32;;;;;;;5.10;1.80;;;12.90;99.90;;;;;;5098243;28;20079;-61
2022/11/05 12:34:20;;;;;;;3.45;1.35;;;12.80;99.90;;;;;;5078682;28;20040;-60
2022/11/05 12:37:06;;;;;;;3.38;1.40;;;12.70;99.90;;;;;;5079531;28;20043;-61
2022/11/05 12:39:41;;;;;;;5.22;1.40;;;12.80;99.90;;;;;;5100572;28;20118;-59
2022/11/05 12:42:13;;;;;;;4.03;1.10;;;12.70;99.90;;;;;;5075455;28;20060;-61
2022/11/05 12:45:03;;;;;;;2.72;0.98;;;12.70;99.90;;;;;;5097945;28;20044;-60
2022/11/05 12:48:13;;;;;;;1.90;0.95;;;12.60;99.90;;;;;;5098438;28;20503;-61
2022/11/05 12:50:44;;;;;;;2.20;1.00;;;12.50;99.90;;;;;;5080134;28;20046;-59
2022/11/05 12:53:37;;;;;;;1.92;0.90;;;12.40;99.90;;;;;;5083820;28;20061;-59
2022/11/05 12:56:16;;;;;;;1.80;0.70;;;12.30;99.90;;;;;;5080762;28;20055;-59
2022/11/05 12:58:51;;;;;;;3.33;1.40;;;12.20;99.90;;;;;;5094347;28;20048;-60
2022/11/05 13:01:35;;;;;;;2.58;0.70;;;12.20;99.90;;;;;;5077448;28;20075;-62
2022/11/05 13:04:09;;;;;;;4.40;1.00;;;12.10;99.90;;;;;;5098562;28;20550;-59
2022/11/05 13:06:39;;;;;;;1.33;0.85;;;12.00;99.90;;;;;;5087530;28;20401;-61
2022/11/05 13:09:12;;;;;;;2.63;1.10;;;11.90;99.90;;;;;;5063547;28;20055;-58
2022/11/05 13:11:44;;;;;;;2.53;1.00;;;11.80;99.90;;;;;;5079541;28;20051;-59
2022/11/05 13:14:15;;;;;;;5.03;1.23;;;11.60;99.90;;;;;;5079612;28;20039;-59
2022/11/05 13:16:54;;;;;;;1.65;1.00;;;11.50;99.90;;;;;;5098057;28;20074;-58
2022/11/05 13:19:38;;;;;;;2.38;1.10;;;11.40;99.90;;;;;;5095123;28;20478;-59
2022/11/05 13:22:32;;;;;;;2.05;0.93;;;11.40;99.90;;;;;;5088178;28;20044;-59
2022/11/05 13:25:19;;;;;;;2.22;1.02;;;11.30;99.90;;;;;;5071910;28;20050;-61
2022/11/05 13:28:06;;;;;;;3.72;1.20;;;11.30;99.90;;;;;;5079272;28;20082;-61
2022/11/05 13:30:40;;;;;;;2.55;0.98;;;11.30;99.90;;;;;;5097581;28;20043;-59
2022/11/05 13:33:29;;;;;;;4.22;1.55;;;11.30;99.90;;;;;;5091625;27;20055;-60
2022/11/05 13:39:01;;;;;;;5.13;1.40;;;11.40;99.90;;;;;;5099293;28;20111;-59
2022/11/05 13:42:22;;;;;;;6.03;1.42;;;11.40;99.90;;;;;;5079049;28;20126;-60
2022/11/05 13:45:00;;;;;;;4.53;1.50;;;11.50;99.90;;;;;;5028136;28;20566;-60
2022/11/05 13:48:03;;;;;;;4.65;1.40;;;11.50;99.90;;;;;;5094941;28;20051;-59
2022/11/05 13:50:38;;;;;;;5.53;1.38;;;11.50;99.90;;;;;;5092102;28;20048;-59
2022/11/05 13:53:24;;;;;;;5.53;2.50;;;11.60;99.90;;;;;;5078305;28;20176;-61
2022/11/05 13:56:00;;;;;;;6.38;3.72;;;11.60;99.90;;;;;;5078158;28;20054;-59
2022/11/05 13:58:35;;;;;;;5.45;1.90;;;11.50;99.90;;;;;;5087238;28;20043;-61